sensor_id;sensor_type;location;lat;lon;timestamp;pressure;altitude;pressure_sealevel;temperature;humidity
56272;BME280;42177;48.914;18.160;2023-03-04T00:03:14;986.9;;;3.2;68.9
56272;BME280;42177;48.914;18.160;2023-03-04T00:08:14;986.9;;;3.2;68.9
56272;BME280;42177;48.914;18.160;2023-03-04T00:13:14;986.9;;;3.2;68.8
56272;BME280;42177;48.914;18.160;2023-03-04T00:18:14;986.9;;;3.2;68.8
56272;BME280;42177;48.914;18.160;2023-03-04T00:23:14;986.9;;;3.6;67.6
56272;BME280;42177;48.914;18.160;2023-03-04T00:28:14;986.9;;;3.6;67.6
56272;BME280;42177;48.914;18.160;2023-03-04T00:33:14;986.8;;;3.1;68.8
56272;BME280;42177;48.914;18.160;2023-03-04T00:38:14;986.8;;;3.1;68.8
56272;BME280;42177;48.914;18.160;2023-03-04T00:43:14;986.8;;;3.3;68.2
56272;BME280;42177;48.914;18.160;2023-03-04T00:48:14;986.8;;;3.3;68.2
56272;BME280;42177;48.914;18.160;2023-03-04T00:53:14;986.8;;;3.3;68.5
56272;BME280;42177;48.914;18.160;2023-03-04T00:58:14;986.8;;;3.3;68.5
56272;BME280;42177;48.914;18.160;2023-03-04T01:03:14;986.8;;;3.2;68.3
56272;BME280;42177;48.914;18.160;2023-03-04T01:08:14;986.8;;;3.2;68.3
56272;BME280;42177;48.914;18.160;2023-03-04T01:13:14;986.6;;;2.8;69.5
56272;BME280;42177;48.914;18.160;2023-03-04T01:18:14;986.6;;;2.8;69.5
56272;BME280;42177;48.914;18.160;2023-03-04T01:23:14;986.5;;;3.1;67.9
56272;BME280;42177;48.914;18.160;2023-03-04T01:28:14;986.5;;;3.1;67.9
56272;BME280;42177;48.914;18.160;2023-03-04T01:33:14;986.3;;;3.2;67.7
56272;BME280;42177;48.914;18.160;2023-03-04T01:38:14;986.3;;;3.2;67.7
56272;BME280;42177;48.914;18.160;2023-03-04T01:43:15;986.3;;;3;68.3
56272;BME280;42177;48.914;18.160;2023-03-04T01:48:14;986.3;;;3;68.3
56272;BME280;42177;48.914;18.160;2023-03-04T01:53:16;986.2;;;3;68.3
56272;BME280;42177;48.914;18.160;2023-03-04T01:58:14;986.2;;;3;68.3
56272;BME280;42177;48.914;18.160;2023-03-04T02:03:15;986.2;;;2.6;69
56272;BME280;42177;48.914;18.160;2023-03-04T02:08:14;986.2;;;2.6;69
56272;BME280;42177;48.914;18.160;2023-03-04T02:13:14;986;;;2.6;70
56272;BME280;42177;48.914;18.160;2023-03-04T02:18:15;986;;;2.6;70
56272;BME280;42177;48.914;18.160;2023-03-04T02:23:15;985.9;;;2.4;70.3
56272;BME280;42177;48.914;18.160;2023-03-04T02:28:14;985.9;;;2.4;70.3
56272;BME280;42177;48.914;18.160;2023-03-04T02:33:15;985.8;;;2.4;70.6
56272;BME280;42177;48.914;18.160;2023-03-04T02:38:14;985.8;;;2.4;70.6
56272;BME280;42177;48.914;18.160;2023-03-04T02:43:14;985.8;;;2.6;69.9
56272;BME280;42177;48.914;18.160;2023-03-04T02:48:15;985.8;;;2.6;69.9
56272;BME280;42177;48.914;18.160;2023-03-04T02:53:14;985.6;;;2.5;70.8
56272;BME280;42177;48.914;18.160;2023-03-04T02:58:14;985.6;;;2.5;70.8
56272;BME280;42177;48.914;18.160;2023-03-04T03:03:14;985.5;;;1.7;73
56272;BME280;42177;48.914;18.160;2023-03-04T03:08:14;985.5;;;1.7;73
56272;BME280;42177;48.914;18.160;2023-03-04T03:13:14;985.6;;;2;72.1
56272;BME280;42177;48.914;18.160;2023-03-04T03:18:14;985.6;;;2;72.1
56272;BME280;42177;48.914;18.160;2023-03-04T03:23:14;985.5;;;1.9;72.7
56272;BME280;42177;48.914;18.160;2023-03-04T03:28:14;985.5;;;1.9;72.7
56272;BME280;42177;48.914;18.160;2023-03-04T03:33:14;985.6;;;2.1;71.6
56272;BME280;42177;48.914;18.160;2023-03-04T03:38:14;985.6;;;2.1;71.6
56272;BME280;42177;48.914;18.160;2023-03-04T03:43:14;985.3;;;1.9;72.7
56272;BME280;42177;48.914;18.160;2023-03-04T03:48:14;985.3;;;1.9;72.7
56272;BME280;42177;48.914;18.160;2023-03-04T03:53:14;985.3;;;2;72.5
56272;BME280;42177;48.914;18.160;2023-03-04T03:58:14;985.3;;;2;72.5
56272;BME280;42177;48.914;18.160;2023-03-04T04:03:14;985.2;;;1.9;72.6
56272;BME280;42177;48.914;18.160;2023-03-04T04:08:14;985.2;;;1.9;72.6
56272;BME280;42177;48.914;18.160;2023-03-04T04:13:14;985.2;;;1.9;72.4
56272;BME280;42177;48.914;18.160;2023-03-04T04:18:14;985.2;;;1.9;72.4
56272;BME280;42177;48.914;18.160;2023-03-04T04:23:14;985.1;;;2;72.6
56272;BME280;42177;48.914;18.160;2023-03-04T04:28:14;985.1;;;2;72.6
56272;BME280;42177;48.914;18.160;2023-03-04T04:33:14;985.1;;;1.9;72.3
56272;BME280;42177;48.914;18.160;2023-03-04T04:38:14;985.1;;;1.9;72.3
56272;BME280;42177;48.914;18.160;2023-03-04T04:43:14;985.1;;;2.2;74
56272;BME280;42177;48.914;18.160;2023-03-04T04:48:14;985.1;;;2.2;74
56272;BME280;42177;48.914;18.160;2023-03-04T04:53:14;985.2;;;1.9;73.2
56272;BME280;42177;48.914;18.160;2023-03-04T04:58:14;985.2;;;1.9;73.2
56272;BME280;42177;48.914;18.160;2023-03-04T05:03:14;985.2;;;1.9;72.9
56272;BME280;42177;48.914;18.160;2023-03-04T05:08:14;985.2;;;1.9;72.9
56272;BME280;42177;48.914;18.160;2023-03-04T05:13:14;985.2;;;1.9;73.2
56272;BME280;42177;48.914;18.160;2023-03-04T05:18:14;985.2;;;1.9;73.2
56272;BME280;42177;48.914;18.160;2023-03-04T05:23:14;985.2;;;1.7;74
56272;BME280;42177;48.914;18.160;2023-03-04T05:28:14;985.2;;;1.7;74
56272;BME280;42177;48.914;18.160;2023-03-04T05:33:14;985.2;;;1.7;74.2
56272;BME280;42177;48.914;18.160;2023-03-04T05:38:15;985.2;;;1.7;74.2
56272;BME280;42177;48.914;18.160;2023-03-04T05:43:14;985.3;;;1.9;73.2
56272;BME280;42177;48.914;18.160;2023-03-04T05:48:14;985.3;;;1.9;73.2
56272;BME280;42177;48.914;18.160;2023-03-04T05:53:14;985.1;;;1.5;73.7
56272;BME280;42177;48.914;18.160;2023-03-04T05:58:14;985.1;;;1.5;73.7
56272;BME280;42177;48.914;18.160;2023-03-04T06:03:15;985.1;;;1.4;74.4
56272;BME280;42177;48.914;18.160;2023-03-04T06:08:14;985.1;;;1.4;74.4
56272;BME280;42177;48.914;18.160;2023-03-04T06:13:14;985.2;;;1.7;74.6
56272;BME280;42177;48.914;18.160;2023-03-04T06:18:14;985.2;;;1.7;74.6
56272;BME280;42177;48.914;18.160;2023-03-04T06:23:14;985.3;;;1.6;74.3
56272;BME280;42177;48.914;18.160;2023-03-04T06:28:14;985.3;;;1.6;74.3
56272;BME280;42177;48.914;18.160;2023-03-04T06:33:14;985.3;;;1.5;74.2
56272;BME280;42177;48.914;18.160;2023-03-04T06:38:14;985.3;;;1.5;74.2
56272;BME280;42177;48.914;18.160;2023-03-04T06:43:14;985.4;;;2.4;71.1
56272;BME280;42177;48.914;18.160;2023-03-04T06:48:14;985.4;;;2.4;71.1
56272;BME280;42177;48.914;18.160;2023-03-04T06:53:14;985.5;;;2.5;70.8
56272;BME280;42177;48.914;18.160;2023-03-04T06:58:14;985.5;;;2.5;70.8
56272;BME280;42177;48.914;18.160;2023-03-04T07:03:14;985.5;;;3.3;68.7
56272;BME280;42177;48.914;18.160;2023-03-04T07:08:14;985.5;;;3.3;68.7
56272;BME280;42177;48.914;18.160;2023-03-04T07:13:14;985.5;;;3.8;67
56272;BME280;42177;48.914;18.160;2023-03-04T07:18:14;985.5;;;3.8;67
56272;BME280;42177;48.914;18.160;2023-03-04T07:23:14;985.4;;;4.1;67.4
56272;BME280;42177;48.914;18.160;2023-03-04T07:28:14;985.4;;;4.1;67.4
56272;BME280;42177;48.914;18.160;2023-03-04T07:33:14;985.3;;;4.6;66.8
56272;BME280;42177;48.914;18.160;2023-03-04T07:38:14;985.3;;;4.6;66.8
56272;BME280;42177;48.914;18.160;2023-03-04T07:43:14;985.2;;;5;65.4
56272;BME280;42177;48.914;18.160;2023-03-04T07:48:14;985.2;;;5;65.4
56272;BME280;42177;48.914;18.160;2023-03-04T07:53:14;985.3;;;5;66.5
56272;BME280;42177;48.914;18.160;2023-03-04T07:58:14;985.3;;;5;66.5
56272;BME280;42177;48.914;18.160;2023-03-04T08:03:14;985.2;;;5.3;65.1
56272;BME280;42177;48.914;18.160;2023-03-04T08:08:14;985.2;;;5.3;65.1
56272;BME280;42177;48.914;18.160;2023-03-04T08:13:14;985.2;;;5.7;64
56272;BME280;42177;48.914;18.160;2023-03-04T08:18:14;985.2;;;5.7;64
56272;BME280;42177;48.914;18.160;2023-03-04T08:23:14;985.2;;;6;62.8
56272;BME280;42177;48.914;18.160;2023-03-04T08:28:14;985.2;;;6;62.8
56272;BME280;42177;48.914;18.160;2023-03-04T08:33:14;985;;;6.6;61.1
56272;BME280;42177;48.914;18.160;2023-03-04T08:38:14;985;;;6.6;61.1
56272;BME280;42177;48.914;18.160;2023-03-04T08:43:14;985;;;7.2;58.4
56272;BME280;42177;48.914;18.160;2023-03-04T08:48:15;985;;;7.2;58.4
56272;BME280;42177;48.914;18.160;2023-03-04T08:53:15;985;;;7.1;58.1
56272;BME280;42177;48.914;18.160;2023-03-04T08:58:14;985;;;7.1;58.1
56272;BME280;42177;48.914;18.160;2023-03-04T09:03:14;984.9;;;7.9;57.1
56272;BME280;42177;48.914;18.160;2023-03-04T09:08:14;984.9;;;7.9;57.1
56272;BME280;42177;48.914;18.160;2023-03-04T09:13:14;984.8;;;7.9;56.8
56272;BME280;42177;48.914;18.160;2023-03-04T09:18:14;984.8;;;7.9;56.8
56272;BME280;42177;48.914;18.160;2023-03-04T09:23:14;984.7;;;7.7;56.3
56272;BME280;42177;48.914;18.160;2023-03-04T09:28:15;984.7;;;7.7;56.3
56272;BME280;42177;48.914;18.160;2023-03-04T09:33:14;984.7;;;9;54
56272;BME280;42177;48.914;18.160;2023-03-04T09:38:14;984.7;;;9;54
56272;BME280;42177;48.914;18.160;2023-03-04T09:43:17;984.7;;;9.3;52
56272;BME280;42177;48.914;18.160;2023-03-04T09:48:15;984.7;;;9.3;52
56272;BME280;42177;48.914;18.160;2023-03-04T09:53:17;984.7;;;9.6;52.7
56272;BME280;42177;48.914;18.160;2023-03-04T09:58:15;984.7;;;9.6;52.7
56272;BME280;42177;48.914;18.160;2023-03-04T10:03:15;984.6;;;10.1;51.5
56272;BME280;42177;48.914;18.160;2023-03-04T10:08:22;984.6;;;10.1;51.5
56272;BME280;42177;48.914;18.160;2023-03-04T10:13:15;984.5;;;10.1;50.4
56272;BME280;42177;48.914;18.160;2023-03-04T10:18:16;984.5;;;10.1;50.4
56272;BME280;42177;48.914;18.160;2023-03-04T10:23:15;984.4;;;10.8;48.1
56272;BME280;42177;48.914;18.160;2023-03-04T10:28:15;984.4;;;10.8;48.1
56272;BME280;42177;48.914;18.160;2023-03-04T10:33:15;984.3;;;10.6;45.5
56272;BME280;42177;48.914;18.160;2023-03-04T10:38:14;984.3;;;10.6;45.5
56272;BME280;42177;48.914;18.160;2023-03-04T10:43:15;984.3;;;9.7;46.5
56272;BME280;42177;48.914;18.160;2023-03-04T10:48:22;984.3;;;9.7;46.5
56272;BME280;42177;48.914;18.160;2023-03-04T10:53:21;984.3;;;10.2;46.7
56272;BME280;42177;48.914;18.160;2023-03-04T10:58:14;984.3;;;10.2;46.7
56272;BME280;42177;48.914;18.160;2023-03-04T11:03:22;984.3;;;9.6;47.5
56272;BME280;42177;48.914;18.160;2023-03-04T11:08:16;984.3;;;9.6;47.5
56272;BME280;42177;48.914;18.160;2023-03-04T11:13:15;984.3;;;9.5;48.5
56272;BME280;42177;48.914;18.160;2023-03-04T11:18:14;984.3;;;9.5;48.5
56272;BME280;42177;48.914;18.160;2023-03-04T11:23:15;984.2;;;10.7;46.7
56272;BME280;42177;48.914;18.160;2023-03-04T11:28:15;984.2;;;10.7;46.7
56272;BME280;42177;48.914;18.160;2023-03-04T11:33:16;984.3;;;8.2;49.7
56272;BME280;42177;48.914;18.160;2023-03-04T11:38:16;984.3;;;8.2;49.7
56272;BME280;42177;48.914;18.160;2023-03-04T11:43:15;984.3;;;7.3;52.1
56272;BME280;42177;48.914;18.160;2023-03-04T11:48:15;984.3;;;7.3;52.1
56272;BME280;42177;48.914;18.160;2023-03-04T11:53:19;984.5;;;7.2;53.5
56272;BME280;42177;48.914;18.160;2023-03-04T11:58:19;984.5;;;7.2;53.5
56272;BME280;42177;48.914;18.160;2023-03-04T12:03:18;984.4;;;7.1;53.5
56272;BME280;42177;48.914;18.160;2023-03-04T12:08:19;984.4;;;7.1;53.5
56272;BME280;42177;48.914;18.160;2023-03-04T12:13:20;984.3;;;7.4;52.7
56272;BME280;42177;48.914;18.160;2023-03-04T12:18:17;984.3;;;7.4;52.7
56272;BME280;42177;48.914;18.160;2023-03-04T12:23:18;984.3;;;7.4;52.5
56272;BME280;42177;48.914;18.160;2023-03-04T12:28:20;984.3;;;7.4;52.5
56272;BME280;42177;48.914;18.160;2023-03-04T12:33:16;984.3;;;7;53.3
56272;BME280;42177;48.914;18.160;2023-03-04T12:38:18;984.3;;;7;53.3
56272;BME280;42177;48.914;18.160;2023-03-04T12:43:32;984.2;;;6.8;55.5
56272;BME280;42177;48.914;18.160;2023-03-04T12:48:17;984.2;;;6.8;55.5
56272;BME280;42177;48.914;18.160;2023-03-04T12:53:16;984.2;;;7.8;53.8
56272;BME280;42177;48.914;18.160;2023-03-04T12:58:15;984.2;;;7.8;53.8
56272;BME280;42177;48.914;18.160;2023-03-04T13:03:16;984.2;;;7.2;53.8
56272;BME280;42177;48.914;18.160;2023-03-04T13:08:18;984.2;;;7.2;53.8
56272;BME280;42177;48.914;18.160;2023-03-04T13:13:32;984;;;7.3;53.5
56272;BME280;42177;48.914;18.160;2023-03-04T13:18:33;984;;;7.3;53.5
56272;BME280;42177;48.914;18.160;2023-03-04T13:23:21;984;;;6.8;55.3
56272;BME280;42177;48.914;18.160;2023-03-04T13:28:17;984;;;6.8;55.3
56272;BME280;42177;48.914;18.160;2023-03-04T13:38:19;983.9;;;6.9;55
56272;BME280;42177;48.914;18.160;2023-03-04T13:43:23;983.8;;;7.3;53.7
56272;BME280;42177;48.914;18.160;2023-03-04T13:48:22;983.8;;;7.3;53.7
56272;BME280;42177;48.914;18.160;2023-03-04T13:53:47;983.8;;;6.8;54.6
56272;BME280;42177;48.914;18.160;2023-03-04T13:58:17;983.8;;;6.8;54.6
56272;BME280;42177;48.914;18.160;2023-03-04T14:03:18;983.7;;;7.3;55.1
56272;BME280;42177;48.914;18.160;2023-03-04T14:08:16;983.7;;;7.3;55.1
56272;BME280;42177;48.914;18.160;2023-03-04T14:13:14;983.8;;;6.6;55.3
56272;BME280;42177;48.914;18.160;2023-03-04T14:18:14;983.8;;;6.6;55.3
56272;BME280;42177;48.914;18.160;2023-03-04T14:23:22;983.6;;;7;55.2
56272;BME280;42177;48.914;18.160;2023-03-04T14:28:15;983.6;;;7;55.2
56272;BME280;42177;48.914;18.160;2023-03-04T14:33:15;983.6;;;6.8;55.3
56272;BME280;42177;48.914;18.160;2023-03-04T14:38:15;983.6;;;6.8;55.3
56272;BME280;42177;48.914;18.160;2023-03-04T14:43:15;983.5;;;6.6;56
56272;BME280;42177;48.914;18.160;2023-03-04T14:48:15;983.5;;;6.6;56
56272;BME280;42177;48.914;18.160;2023-03-04T14:53:15;983.4;;;6.9;55.3
56272;BME280;42177;48.914;18.160;2023-03-04T14:58:18;983.4;;;6.9;55.3
56272;BME280;42177;48.914;18.160;2023-03-04T15:03:18;983.5;;;6.4;57.9
56272;BME280;42177;48.914;18.160;2023-03-04T15:08:18;983.5;;;6.4;57.9
56272;BME280;42177;48.914;18.160;2023-03-04T15:13:14;983.4;;;6.5;58.5
56272;BME280;42177;48.914;18.160;2023-03-04T15:18:16;983.4;;;6.5;58.5
56272;BME280;42177;48.914;18.160;2023-03-04T15:23:14;983.3;;;6.3;60
56272;BME280;42177;48.914;18.160;2023-03-04T15:28:14;983.3;;;6.3;60
56272;BME280;42177;48.914;18.160;2023-03-04T15:33:14;983.4;;;6.1;61.1
56272;BME280;42177;48.914;18.160;2023-03-04T15:38:14;983.4;;;6.1;61.1
56272;BME280;42177;48.914;18.160;2023-03-04T15:43:15;983.5;;;6.1;61.8
56272;BME280;42177;48.914;18.160;2023-03-04T15:48:15;983.5;;;6.1;61.8
56272;BME280;42177;48.914;18.160;2023-03-04T15:53:15;983.4;;;6.1;62.2
56272;BME280;42177;48.914;18.160;2023-03-04T15:58:14;983.4;;;6.1;62.2
56272;BME280;42177;48.914;18.160;2023-03-04T16:03:14;983.4;;;6.4;61.7
56272;BME280;42177;48.914;18.160;2023-03-04T16:08:15;983.4;;;6.4;61.7
56272;BME280;42177;48.914;18.160;2023-03-04T16:13:15;983.4;;;6.2;62
56272;BME280;42177;48.914;18.160;2023-03-04T16:18:14;983.4;;;6.2;62
56272;BME280;42177;48.914;18.160;2023-03-04T16:23:15;983.3;;;6.2;62.6
56272;BME280;42177;48.914;18.160;2023-03-04T16:28:14;983.3;;;6.2;62.6
56272;BME280;42177;48.914;18.160;2023-03-04T16:33:14;983.5;;;6.1;63.6
56272;BME280;42177;48.914;18.160;2023-03-04T16:38:17;983.5;;;6.1;63.6
56272;BME280;42177;48.914;18.160;2023-03-04T16:43:14;983.5;;;6.1;64.3
56272;BME280;42177;48.914;18.160;2023-03-04T16:48:14;983.5;;;6.1;64.3
56272;BME280;42177;48.914;18.160;2023-03-04T16:53:17;983.5;;;6.3;63.2
56272;BME280;42177;48.914;18.160;2023-03-04T16:58:14;983.5;;;6.3;63.2
56272;BME280;42177;48.914;18.160;2023-03-04T17:03:14;983.5;;;6.4;63.6
56272;BME280;42177;48.914;18.160;2023-03-04T17:08:14;983.5;;;6.4;63.6
56272;BME280;42177;48.914;18.160;2023-03-04T17:13:14;983.5;;;6.2;64.5
56272;BME280;42177;48.914;18.160;2023-03-04T17:18:14;983.5;;;6.2;64.5
56272;BME280;42177;48.914;18.160;2023-03-04T17:23:14;983.5;;;6.1;65.6
56272;BME280;42177;48.914;18.160;2023-03-04T17:28:14;983.5;;;6.1;65.6
56272;BME280;42177;48.914;18.160;2023-03-04T17:33:14;983.4;;;5.9;65.9
56272;BME280;42177;48.914;18.160;2023-03-04T17:38:14;983.4;;;5.9;65.9
56272;BME280;42177;48.914;18.160;2023-03-04T17:43:14;983.4;;;6;65.7
56272;BME280;42177;48.914;18.160;2023-03-04T17:48:14;983.4;;;6;65.7
56272;BME280;42177;48.914;18.160;2023-03-04T17:53:14;983.5;;;6.1;65.4
56272;BME280;42177;48.914;18.160;2023-03-04T17:58:14;983.5;;;6.1;65.4
56272;BME280;42177;48.914;18.160;2023-03-04T18:03:14;983.4;;;6;66.2
56272;BME280;42177;48.914;18.160;2023-03-04T18:08:14;983.4;;;6;66.2
56272;BME280;42177;48.914;18.160;2023-03-04T18:13:14;983.5;;;5.9;66.9
56272;BME280;42177;48.914;18.160;2023-03-04T18:18:14;983.5;;;5.9;66.9
56272;BME280;42177;48.914;18.160;2023-03-04T18:23:14;983.4;;;6.1;66.5
56272;BME280;42177;48.914;18.160;2023-03-04T18:28:14;983.4;;;6.1;66.5
56272;BME280;42177;48.914;18.160;2023-03-04T18:33:14;983.5;;;5.8;66.9
56272;BME280;42177;48.914;18.160;2023-03-04T18:38:14;983.5;;;5.8;66.9
56272;BME280;42177;48.914;18.160;2023-03-04T18:43:14;983.4;;;6;67.1
56272;BME280;42177;48.914;18.160;2023-03-04T18:48:14;983.4;;;6;67.1
56272;BME280;42177;48.914;18.160;2023-03-04T18:53:14;983.4;;;6.1;67.1
56272;BME280;42177;48.914;18.160;2023-03-04T18:58:14;983.4;;;6.1;67.1
56272;BME280;42177;48.914;18.160;2023-03-04T19:03:14;983.5;;;6.4;66.5
56272;BME280;42177;48.914;18.160;2023-03-04T19:08:14;983.5;;;6.4;66.5
56272;BME280;42177;48.914;18.160;2023-03-04T19:13:14;983.5;;;6.2;65.8
56272;BME280;42177;48.914;18.160;2023-03-04T19:18:14;983.5;;;6.2;65.8
56272;BME280;42177;48.914;18.160;2023-03-04T19:23:15;983.5;;;6.1;66.2
56272;BME280;42177;48.914;18.160;2023-03-04T19:28:14;983.5;;;6.1;66.2
56272;BME280;42177;48.914;18.160;2023-03-04T19:33:14;983.5;;;6.1;66.1
56272;BME280;42177;48.914;18.160;2023-03-04T19:38:14;983.5;;;6.1;66.1
56272;BME280;42177;48.914;18.160;2023-03-04T19:43:14;983.4;;;5.8;67.5
56272;BME280;42177;48.914;18.160;2023-03-04T19:48:14;983.4;;;5.8;67.5
56272;BME280;42177;48.914;18.160;2023-03-04T19:53:14;983.4;;;5.9;68
56272;BME280;42177;48.914;18.160;2023-03-04T19:58:14;983.4;;;5.9;68
56272;BME280;42177;48.914;18.160;2023-03-04T20:03:14;983.2;;;5.9;68.2
56272;BME280;42177;48.914;18.160;2023-03-04T20:08:14;983.2;;;5.9;68.2
56272;BME280;42177;48.914;18.160;2023-03-04T20:13:14;983.2;;;5.9;69.3
56272;BME280;42177;48.914;18.160;2023-03-04T20:18:14;983.2;;;5.9;69.3
56272;BME280;42177;48.914;18.160;2023-03-04T20:23:14;983.3;;;6.2;68.7
56272;BME280;42177;48.914;18.160;2023-03-04T20:28:14;983.3;;;6.2;68.7
56272;BME280;42177;48.914;18.160;2023-03-04T20:33:14;983.3;;;6.1;68.1
56272;BME280;42177;48.914;18.160;2023-03-04T20:38:14;983.3;;;6.1;68.1
56272;BME280;42177;48.914;18.160;2023-03-04T20:43:14;983.3;;;6.2;68
56272;BME280;42177;48.914;18.160;2023-03-04T20:48:14;983.3;;;6.2;68
56272;BME280;42177;48.914;18.160;2023-03-04T20:53:14;983.2;;;6.2;67.7
56272;BME280;42177;48.914;18.160;2023-03-04T20:58:14;983.2;;;6.2;67.7
56272;BME280;42177;48.914;18.160;2023-03-04T21:03:14;983.1;;;6;68.8
56272;BME280;42177;48.914;18.160;2023-03-04T21:08:14;983.1;;;6;68.8
56272;BME280;42177;48.914;18.160;2023-03-04T21:13:14;983;;;5.8;69.7
56272;BME280;42177;48.914;18.160;2023-03-04T21:18:14;983;;;5.8;69.7
56272;BME280;42177;48.914;18.160;2023-03-04T21:23:14;982.9;;;6;69.5
56272;BME280;42177;48.914;18.160;2023-03-04T21:28:14;982.9;;;6;69.5
56272;BME280;42177;48.914;18.160;2023-03-04T21:33:15;982.9;;;6.1;69.5
56272;BME280;42177;48.914;18.160;2023-03-04T21:38:14;982.9;;;6.1;69.5
56272;BME280;42177;48.914;18.160;2023-03-04T21:43:14;982.8;;;6;70.4
56272;BME280;42177;48.914;18.160;2023-03-04T21:48:14;982.8;;;6;70.4
56272;BME280;42177;48.914;18.160;2023-03-04T21:53:14;982.8;;;6;70.8
56272;BME280;42177;48.914;18.160;2023-03-04T21:58:14;982.8;;;6;70.8
56272;BME280;42177;48.914;18.160;2023-03-04T22:03:14;982.8;;;5.9;71
56272;BME280;42177;48.914;18.160;2023-03-04T22:08:15;982.8;;;5.9;71
56272;BME280;42177;48.914;18.160;2023-03-04T22:13:14;982.7;;;5.8;72
56272;BME280;42177;48.914;18.160;2023-03-04T22:18:14;982.7;;;5.8;72
56272;BME280;42177;48.914;18.160;2023-03-04T22:23:14;982.7;;;5.9;72
56272;BME280;42177;48.914;18.160;2023-03-04T22:28:14;982.7;;;5.9;72
56272;BME280;42177;48.914;18.160;2023-03-04T22:33:14;982.6;;;6.2;71.4
56272;BME280;42177;48.914;18.160;2023-03-04T22:38:14;982.6;;;6.2;71.4
56272;BME280;42177;48.914;18.160;2023-03-04T22:43:14;982.6;;;5.9;72.7
56272;BME280;42177;48.914;18.160;2023-03-04T22:48:14;982.6;;;5.9;72.7
56272;BME280;42177;48.914;18.160;2023-03-04T22:53:14;982.6;;;6.1;72.3
56272;BME280;42177;48.914;18.160;2023-03-04T22:58:14;982.6;;;6.1;72.3
56272;BME280;42177;48.914;18.160;2023-03-04T23:03:14;982.6;;;6.3;71.7
56272;BME280;42177;48.914;18.160;2023-03-04T23:08:14;982.6;;;6.3;71.7
56272;BME280;42177;48.914;18.160;2023-03-04T23:13:14;982.5;;;6.3;68.9
56272;BME280;42177;48.914;18.160;2023-03-04T23:18:14;982.5;;;6.3;68.9
56272;BME280;42177;48.914;18.160;2023-03-04T23:23:14;982.5;;;6.1;68.4
56272;BME280;42177;48.914;18.160;2023-03-04T23:28:14;982.5;;;6.1;68.4
56272;BME280;42177;48.914;18.160;2023-03-04T23:33:14;982.6;;;5.9;68.5
56272;BME280;42177;48.914;18.160;2023-03-04T23:38:14;982.6;;;5.9;68.5
56272;BME280;42177;48.914;18.160;2023-03-04T23:43:14;982.6;;;6;68.4
56272;BME280;42177;48.914;18.160;2023-03-04T23:48:14;982.6;;;6;68.4
56272;BME280;42177;48.914;18.160;2023-03-04T23:53:14;982.7;;;6.1;68
56272;BME280;42177;48.914;18.160;2023-03-04T23:58:14;982.7;;;6.1;68
